createdAt,value
2017-12-02T00:00:41.720Z,1003.37
2017-12-02T00:01:47.830Z,1003.30
2017-12-02T00:02:53.931Z,1003.43
2017-12-02T00:03:59.834Z,1003.41
2017-12-02T00:05:05.824Z,1003.30
2017-12-02T00:06:11.838Z,1003.40
2017-12-02T00:07:17.893Z,1003.32
2017-12-02T00:08:23.917Z,1003.34
2017-12-02T00:09:29.918Z,1003.48
2017-12-02T00:10:35.968Z,1003.42
2017-12-02T00:11:42.233Z,1003.50
2017-12-02T00:12:48.020Z,1003.49
2017-12-02T00:13:54.052Z,1003.63
2017-12-02T00:15:00.104Z,1003.51
2017-12-02T00:16:06.134Z,1003.58
2017-12-02T00:17:12.200Z,1003.57
2017-12-02T00:18:18.311Z,1003.58
2017-12-02T00:19:24.389Z,1003.48
2017-12-02T00:20:30.239Z,1003.53
2017-12-02T00:21:36.250Z,1003.50
2017-12-02T00:22:42.350Z,1003.65
2017-12-02T00:23:48.388Z,1003.69
2017-12-02T00:24:54.343Z,1003.65
2017-12-02T00:26:00.388Z,1003.70
2017-12-02T00:27:06.521Z,1003.71
2017-12-02T00:28:12.466Z,1003.79
2017-12-02T00:29:18.600Z,1003.90
2017-12-02T00:30:24.565Z,1003.90
2017-12-02T00:31:30.497Z,1003.81
2017-12-02T00:32:36.579Z,1003.83
2017-12-02T00:33:42.712Z,1003.69
2017-12-02T00:34:48.659Z,1003.85
2017-12-02T00:35:54.710Z,1003.89
2017-12-02T00:37:00.675Z,1003.78
2017-12-02T00:38:06.715Z,1003.92
2017-12-02T00:39:12.753Z,1003.83
2017-12-02T00:40:18.799Z,1003.95
2017-12-02T00:41:24.759Z,1003.93
2017-12-02T00:42:31.056Z,1003.88
2017-12-02T00:43:36.918Z,1003.74
2017-12-02T00:44:42.891Z,1003.78
2017-12-02T00:45:48.847Z,1003.75
2017-12-02T00:46:54.884Z,1003.81
2017-12-02T00:48:00.902Z,1003.74
2017-12-02T00:49:07.060Z,1003.52
2017-12-02T00:50:13.034Z,1003.73
2017-12-02T00:51:18.990Z,1003.85
2017-12-02T00:52:25.211Z,1004.00
2017-12-02T00:53:31.150Z,1003.76
2017-12-02T00:54:37.130Z,1003.84
2017-12-02T00:55:43.074Z,1003.68
2017-12-02T00:56:49.135Z,1003.81
2017-12-02T00:57:55.269Z,1003.76
2017-12-02T00:59:01.146Z,1003.85
2017-12-02T01:00:07.170Z,1003.87
2017-12-02T01:01:13.202Z,1003.83
2017-12-02T01:02:19.276Z,1003.94
2017-12-02T01:03:25.823Z,1003.91
2017-12-02T01:04:31.464Z,1003.91
2017-12-02T01:05:37.316Z,1004.05
2017-12-02T01:06:43.329Z,1003.92
2017-12-02T01:07:49.587Z,1004.12
2017-12-02T01:08:55.458Z,1004.16
2017-12-02T01:10:01.923Z,1003.98
2017-12-02T01:11:07.552Z,1003.92
2017-12-02T01:12:13.495Z,1004.03
2017-12-02T01:13:19.522Z,1004.08
2017-12-02T01:14:25.534Z,1004.00
2017-12-02T01:15:31.648Z,1003.96
2017-12-02T01:16:37.593Z,1004.01
2017-12-02T01:17:43.635Z,1004.13
2017-12-02T01:18:49.661Z,1004.03
2017-12-02T01:19:55.742Z,1004.23
2017-12-02T01:21:01.712Z,1004.37
2017-12-02T01:22:07.761Z,1004.34
2017-12-02T01:23:13.796Z,1003.96
2017-12-02T01:24:19.909Z,1004.03
2017-12-02T01:25:25.885Z,1003.88
2017-12-02T01:26:31.836Z,1004.04
2017-12-02T01:27:38.475Z,1004.30
2017-12-02T01:28:43.930Z,1004.11
2017-12-02T01:29:50.044Z,1004.10
2017-12-02T01:30:55.923Z,1004.14
2017-12-02T01:32:01.959Z,1004.23
2017-12-02T01:33:07.967Z,1004.17
2017-12-02T01:34:14.066Z,1004.17
2017-12-02T01:35:20.021Z,1004.36
2017-12-02T01:36:26.073Z,1004.12
2017-12-02T01:37:32.289Z,1004.20
2017-12-02T01:38:38.231Z,1004.43
2017-12-02T01:39:44.211Z,1004.36
2017-12-02T01:40:50.159Z,1004.28
2017-12-02T01:41:56.282Z,1004.46
2017-12-02T01:43:02.227Z,1004.41
2017-12-02T01:44:08.296Z,1004.55
2017-12-02T01:45:14.358Z,1004.53
2017-12-02T01:46:20.294Z,1004.51
2017-12-02T01:47:26.329Z,1004.41
2017-12-02T01:48:32.470Z,1004.55
2017-12-02T01:49:38.440Z,1004.34
2017-12-02T01:50:44.561Z,1004.57
2017-12-02T01:51:50.443Z,1004.55
2017-12-02T01:52:56.520Z,1004.36
2017-12-02T01:54:02.545Z,1004.58
2017-12-02T01:55:08.597Z,1004.58
2017-12-02T01:56:14.541Z,1004.61
2017-12-02T01:57:20.601Z,1004.56
2017-12-02T01:58:26.640Z,1004.57
2017-12-02T01:59:32.749Z,1004.60
2017-12-02T02:00:38.727Z,1004.69
2017-12-02T02:01:44.684Z,1004.63
2017-12-02T02:02:50.739Z,1004.61
2017-12-02T02:03:56.752Z,1004.65
2017-12-02T02:05:02.778Z,1004.62
2017-12-02T02:06:08.864Z,1004.61
2017-12-02T02:07:14.860Z,1004.63
2017-12-02T02:08:21.035Z,1004.74
2017-12-02T02:09:26.894Z,1004.65
2017-12-02T02:10:32.924Z,1004.70
2017-12-02T02:11:39.089Z,1004.66
2017-12-02T02:12:46.611Z,1004.61
2017-12-02T02:13:51.187Z,1004.78
2017-12-02T02:14:57.062Z,1004.79
2017-12-02T02:16:03.078Z,1004.65
2017-12-02T02:17:09.178Z,1004.76
2017-12-02T02:18:15.149Z,1004.74
2017-12-02T02:19:21.178Z,1004.76
2017-12-02T02:20:27.376Z,1004.81
2017-12-02T02:21:33.256Z,1004.78
2017-12-02T02:22:39.304Z,1004.80
2017-12-02T02:23:45.862Z,1004.87
2017-12-02T02:24:51.469Z,1004.79
2017-12-02T02:25:57.375Z,1004.80
2017-12-02T02:27:03.398Z,1004.89
2017-12-02T02:28:09.827Z,1004.83
2017-12-02T02:29:16.005Z,1004.89
2017-12-02T02:30:21.497Z,1004.83
2017-12-02T02:31:27.538Z,1004.84
2017-12-02T02:32:33.597Z,1004.93
2017-12-02T02:33:39.599Z,1004.97
2017-12-02T02:34:45.650Z,1004.86
2017-12-02T02:35:51.754Z,1004.97
2017-12-02T02:36:57.695Z,1005.03
2017-12-02T02:38:03.759Z,1004.94
2017-12-02T02:39:10.460Z,1004.99
2017-12-02T02:40:15.799Z,1004.99
2017-12-02T02:41:21.930Z,1004.92
2017-12-02T02:42:27.986Z,1005.07
2017-12-02T02:43:33.992Z,1005.07
2017-12-02T02:44:39.942Z,1005.20
2017-12-02T02:45:46.025Z,1005.28
2017-12-02T02:46:52.064Z,1005.05
2017-12-02T02:47:58.122Z,1005.06
2017-12-02T02:49:04.071Z,1005.18
2017-12-02T02:50:10.103Z,1005.18
2017-12-02T02:51:16.254Z,1005.15
2017-12-02T02:52:22.454Z,1005.18
2017-12-02T02:53:28.203Z,1005.14
2017-12-02T02:54:34.241Z,1005.21
2017-12-02T02:55:40.267Z,1005.18
2017-12-02T02:56:46.391Z,1005.13
2017-12-02T02:57:52.363Z,1005.19
2017-12-02T02:58:58.389Z,1005.20
2017-12-02T03:00:04.395Z,1005.27
2017-12-02T03:01:10.426Z,1005.29
2017-12-02T03:02:16.480Z,1005.24
2017-12-02T03:03:22.600Z,1005.36
2017-12-02T03:04:28.510Z,1005.24
2017-12-02T03:05:35.092Z,1005.20
2017-12-02T03:06:40.570Z,1005.34
2017-12-02T03:07:46.690Z,1005.23
2017-12-02T03:08:52.627Z,1005.16
2017-12-02T03:09:58.657Z,1005.26
2017-12-02T03:11:04.671Z,1005.37
2017-12-02T03:12:11.279Z,1005.38
2017-12-02T03:13:16.753Z,1005.48
2017-12-02T03:14:22.766Z,1005.51
2017-12-02T03:15:28.768Z,1005.36
2017-12-02T03:16:34.786Z,1005.24
2017-12-02T03:17:40.835Z,1005.35
2017-12-02T03:18:46.867Z,1005.44
2017-12-02T03:19:52.867Z,1005.36
2017-12-02T03:20:58.868Z,1005.36
2017-12-02T03:22:04.905Z,1005.41
2017-12-02T03:23:10.932Z,1005.45
2017-12-02T03:24:17.132Z,1005.33
2017-12-02T03:25:22.944Z,1005.41
2017-12-02T03:26:28.963Z,1005.49
2017-12-02T03:27:34.992Z,1005.51
2017-12-02T03:28:40.993Z,1005.48
2017-12-02T03:29:47.000Z,1005.39
2017-12-02T03:30:53.014Z,1005.45
2017-12-02T03:31:59.240Z,1005.52
2017-12-02T03:33:05.066Z,1005.47
2017-12-02T03:34:11.133Z,1005.55
2017-12-02T03:35:17.080Z,1005.53
2017-12-02T03:36:23.126Z,1005.49
2017-12-02T03:37:29.115Z,1005.44
2017-12-02T03:38:35.193Z,1005.66
2017-12-02T03:39:41.115Z,1005.42
2017-12-02T03:40:47.126Z,1005.36
2017-12-02T03:41:53.139Z,1005.42
2017-12-02T03:42:59.483Z,1005.49
2017-12-02T03:44:05.261Z,1005.50
2017-12-02T03:45:11.185Z,1005.54
2017-12-02T03:46:17.183Z,1005.49
2017-12-02T03:47:23.482Z,1005.48
2017-12-02T03:48:29.234Z,1005.38
2017-12-02T03:49:35.303Z,1005.42
2017-12-02T03:50:41.322Z,1005.54
2017-12-02T03:51:47.243Z,1005.59
2017-12-02T03:52:53.269Z,1005.57
2017-12-02T03:53:59.295Z,1005.67
2017-12-02T03:55:06.620Z,1005.69
2017-12-02T03:56:11.268Z,1005.44
2017-12-02T03:57:17.332Z,1005.51
2017-12-02T03:58:23.311Z,1005.64
2017-12-02T03:59:29.289Z,1005.58
2017-12-02T04:00:35.299Z,1005.53
2017-12-02T04:01:41.292Z,1005.55
2017-12-02T04:02:48.326Z,1005.55
2017-12-02T04:03:53.308Z,1005.78
2017-12-02T04:04:59.371Z,1005.74
2017-12-02T04:06:05.330Z,1005.67
2017-12-02T04:07:11.369Z,1005.58
2017-12-02T04:08:17.333Z,1005.68
2017-12-02T04:09:23.286Z,1005.64
2017-12-02T04:10:29.303Z,1005.61
2017-12-02T04:11:35.430Z,1005.69
2017-12-02T04:12:41.297Z,1005.61
2017-12-02T04:13:47.258Z,1005.62
2017-12-02T04:14:53.256Z,1005.41
2017-12-02T04:15:59.252Z,1005.55
2017-12-02T04:17:05.296Z,1005.47
2017-12-02T04:18:11.242Z,1005.35
2017-12-02T04:19:17.291Z,1005.32
2017-12-02T04:20:23.231Z,1005.52
2017-12-02T04:21:29.796Z,1005.65
2017-12-02T04:22:35.201Z,1005.60
2017-12-02T04:23:41.181Z,1005.58
2017-12-02T04:24:47.229Z,1005.56
2017-12-02T04:25:53.247Z,1005.62
2017-12-02T04:26:59.132Z,1005.62
2017-12-02T04:28:05.150Z,1005.76
2017-12-02T04:29:11.117Z,1005.67
2017-12-02T04:30:17.233Z,1005.65
2017-12-02T04:31:23.092Z,1005.77
2017-12-02T04:32:29.229Z,1005.76
2017-12-02T04:33:35.095Z,1005.81
2017-12-02T04:34:41.060Z,1005.77
2017-12-02T04:35:47.045Z,1005.67
2017-12-02T04:36:53.052Z,1005.89
2017-12-02T04:37:59.042Z,1005.93
2017-12-02T04:39:05.007Z,1006.03
2017-12-02T04:40:11.003Z,1006.09
2017-12-02T04:41:16.995Z,1005.96
2017-12-02T04:42:22.964Z,1006.00
2017-12-02T04:43:29.052Z,1005.95
2017-12-02T04:44:34.930Z,1005.95
2017-12-02T04:45:40.930Z,1006.00
2017-12-02T04:46:46.892Z,1006.01
2017-12-02T04:47:52.890Z,1005.97
2017-12-02T04:48:58.870Z,1005.98
2017-12-02T04:50:04.919Z,1005.84
2017-12-02T04:51:10.862Z,1005.83
2017-12-02T04:52:16.780Z,1005.84
2017-12-02T04:53:22.782Z,1005.79
2017-12-02T04:54:28.742Z,1005.88
2017-12-02T04:55:34.709Z,1006.00
2017-12-02T04:56:40.700Z,1005.93
2017-12-02T04:57:46.679Z,1005.86
2017-12-02T04:58:52.625Z,1005.84
2017-12-02T04:59:58.597Z,1005.86
2017-12-02T05:01:04.581Z,1005.94
2017-12-02T05:02:10.551Z,1006.06
2017-12-02T05:03:16.601Z,1006.05
2017-12-02T05:04:22.476Z,1005.95
2017-12-02T05:05:28.445Z,1005.89
2017-12-02T05:06:34.420Z,1005.77
2017-12-02T05:07:40.386Z,1005.91
2017-12-02T05:08:46.377Z,1005.97
2017-12-02T05:09:52.443Z,1005.81
2017-12-02T05:10:58.324Z,1005.71
2017-12-02T05:12:04.851Z,1005.46
2017-12-02T05:13:10.555Z,1005.63
2017-12-02T05:14:16.197Z,1005.92
2017-12-02T05:15:22.165Z,1006.12
2017-12-02T05:16:28.741Z,1006.04
2017-12-02T05:17:34.096Z,1006.00
2017-12-02T05:18:40.145Z,1005.94
2017-12-02T05:19:46.085Z,1005.86
2017-12-02T05:20:52.037Z,1005.87
2017-12-02T05:21:57.977Z,1005.96
2017-12-02T05:23:04.037Z,1005.95
2017-12-02T05:24:10.485Z,1005.75
2017-12-02T05:25:15.880Z,1005.82
2017-12-02T05:26:21.935Z,1005.99
2017-12-02T05:27:27.819Z,1006.10
2017-12-02T05:28:33.808Z,1006.06
2017-12-02T05:29:39.760Z,1005.91
2017-12-02T05:30:45.725Z,1005.94
2017-12-02T05:31:51.873Z,1005.76
2017-12-02T05:32:57.695Z,1005.70
2017-12-02T05:34:03.693Z,1005.86
2017-12-02T05:35:09.636Z,1005.91
2017-12-02T05:36:15.620Z,1006.05
2017-12-02T05:37:21.590Z,1006.17
2017-12-02T05:38:28.273Z,1006.08
2017-12-02T05:39:33.554Z,1006.10
2017-12-02T05:40:39.540Z,1006.06
2017-12-02T05:41:45.525Z,1006.20
2017-12-02T05:42:51.513Z,1006.21
2017-12-02T05:43:57.808Z,1006.22
2017-12-02T05:45:03.492Z,1006.16
2017-12-02T05:46:09.591Z,1006.14
2017-12-02T05:47:15.478Z,1006.23
2017-12-02T05:48:21.497Z,1006.23
2017-12-02T05:49:27.464Z,1006.27
2017-12-02T05:50:33.467Z,1006.27
2017-12-02T05:51:39.550Z,1006.25
2017-12-02T05:52:45.455Z,1006.22
2017-12-02T05:53:51.560Z,1006.31
2017-12-02T05:54:57.456Z,1006.27
2017-12-02T05:56:03.454Z,1006.38
2017-12-02T05:57:09.488Z,1006.39
2017-12-02T05:58:15.717Z,1006.36
2017-12-02T05:59:21.457Z,1006.42
2017-12-02T06:00:27.457Z,1006.33
2017-12-02T06:01:33.467Z,1006.31
2017-12-02T06:02:39.532Z,1006.40
2017-12-02T06:03:46.244Z,1006.42
2017-12-02T06:04:52.107Z,1006.61
2017-12-02T06:05:57.474Z,1006.59
2017-12-02T06:07:03.475Z,1006.48
2017-12-02T06:08:09.499Z,1006.49
2017-12-02T06:09:16.096Z,1006.47
2017-12-02T06:10:21.496Z,1006.53
2017-12-02T06:11:27.509Z,1006.50
2017-12-02T06:12:33.563Z,1006.50
2017-12-02T06:13:39.522Z,1006.43
2017-12-02T06:14:45.551Z,1006.41
2017-12-02T06:15:51.599Z,1006.42
2017-12-02T06:16:57.506Z,1006.45
2017-12-02T06:18:03.535Z,1006.57
2017-12-02T06:19:09.513Z,1006.58
2017-12-02T06:20:15.516Z,1006.56
2017-12-02T06:21:21.614Z,1006.57
2017-12-02T06:22:27.585Z,1006.61
2017-12-02T06:23:33.652Z,1006.57
2017-12-02T06:24:39.538Z,1006.57
2017-12-02T06:25:45.627Z,1006.64
2017-12-02T06:26:51.539Z,1006.56
2017-12-02T06:27:57.699Z,1006.64
2017-12-02T06:29:04.263Z,1006.53
2017-12-02T06:30:09.617Z,1006.54
2017-12-02T06:31:15.642Z,1006.67
2017-12-02T06:32:21.688Z,1006.76
2017-12-02T06:33:27.742Z,1006.60
2017-12-02T06:34:33.551Z,1006.50
2017-12-02T06:35:39.559Z,1006.69
2017-12-02T06:36:45.545Z,1006.70
2017-12-02T06:37:51.554Z,1006.65
2017-12-02T06:38:57.573Z,1006.60
2017-12-02T06:40:03.544Z,1006.63
2017-12-02T06:41:09.593Z,1006.67
2017-12-02T06:42:15.540Z,1006.69
2017-12-02T06:43:21.577Z,1006.67
2017-12-02T06:44:27.542Z,1006.64
2017-12-02T06:45:33.588Z,1006.62
2017-12-02T06:46:39.712Z,1006.62
2017-12-02T06:47:45.532Z,1006.69
2017-12-02T06:48:51.550Z,1006.78
2017-12-02T06:49:57.580Z,1006.74
2017-12-02T06:51:03.523Z,1006.65
2017-12-02T06:52:09.571Z,1006.80
2017-12-02T06:53:15.543Z,1006.77
2017-12-02T06:54:21.645Z,1006.67
2017-12-02T06:55:27.615Z,1006.71
2017-12-02T06:56:33.520Z,1006.82
2017-12-02T06:57:39.522Z,1006.75
2017-12-02T06:58:45.539Z,1006.73
2017-12-02T06:59:51.518Z,1006.92
2017-12-02T07:00:57.518Z,1006.88
2017-12-02T07:02:03.675Z,1006.76
2017-12-02T07:03:10.061Z,1006.87
2017-12-02T07:04:15.779Z,1006.86
2017-12-02T07:05:21.526Z,1006.90
2017-12-02T07:06:27.533Z,1006.89
2017-12-02T07:07:33.562Z,1006.90
2017-12-02T07:08:39.563Z,1007.07
2017-12-02T07:09:45.668Z,1006.94
2017-12-02T07:10:51.549Z,1007.02
2017-12-02T07:11:57.556Z,1007.19
2017-12-02T07:13:03.576Z,1007.06
2017-12-02T07:14:09.623Z,1006.99
2017-12-02T07:15:15.583Z,1007.11
2017-12-02T07:16:21.695Z,1007.12
2017-12-02T07:17:27.596Z,1007.15
2017-12-02T07:18:34.487Z,1007.05
2017-12-02T07:19:39.668Z,1007.05
2017-12-02T07:20:45.622Z,1007.03
2017-12-02T07:21:51.633Z,1007.14
2017-12-02T07:22:57.785Z,1007.19
2017-12-02T07:24:03.680Z,1007.15
2017-12-02T07:25:09.674Z,1007.14
2017-12-02T07:26:15.752Z,1007.10
2017-12-02T07:27:21.699Z,1007.12
2017-12-02T07:28:27.846Z,1007.10
2017-12-02T07:29:33.871Z,1007.18
2017-12-02T07:30:39.726Z,1007.08
2017-12-02T07:31:45.732Z,1007.10
2017-12-02T07:32:52.761Z,1007.17
2017-12-02T07:33:57.785Z,1007.17
2017-12-02T07:35:03.770Z,1007.28
2017-12-02T07:36:09.795Z,1007.28
2017-12-02T07:37:15.831Z,1007.35
2017-12-02T07:38:21.836Z,1007.33
2017-12-02T07:39:27.830Z,1007.25
2017-12-02T07:40:33.833Z,1007.26
2017-12-02T07:41:39.850Z,1007.31
2017-12-02T07:42:45.872Z,1007.32
2017-12-02T07:43:51.892Z,1007.20
2017-12-02T07:44:57.886Z,1007.18
2017-12-02T07:46:03.921Z,1007.23
2017-12-02T07:47:10.037Z,1007.26
2017-12-02T07:48:15.924Z,1007.20
2017-12-02T07:49:21.961Z,1007.29
2017-12-02T07:50:27.954Z,1007.28
2017-12-02T07:51:33.967Z,1007.16
2017-12-02T07:52:40.029Z,1007.23
2017-12-02T07:53:46.036Z,1007.30
2017-12-02T07:54:52.010Z,1007.40
2017-12-02T07:55:58.032Z,1007.36
2017-12-02T07:57:04.045Z,1007.35
2017-12-02T07:58:10.146Z,1007.30
2017-12-02T07:59:16.784Z,1007.41
2017-12-02T08:00:22.139Z,1007.41
2017-12-02T08:01:28.122Z,1007.29
2017-12-02T08:02:34.139Z,1007.33
2017-12-02T08:03:40.181Z,1007.43
2017-12-02T08:04:46.239Z,1007.43
2017-12-02T08:05:52.286Z,1007.35
2017-12-02T08:06:58.245Z,1007.31
2017-12-02T08:08:04.227Z,1007.41
2017-12-02T08:09:10.285Z,1007.50
2017-12-02T08:10:16.279Z,1007.44
2017-12-02T08:11:22.305Z,1007.43
2017-12-02T08:12:28.367Z,1007.42
2017-12-02T08:13:34.438Z,1007.37
2017-12-02T08:14:40.390Z,1007.46
2017-12-02T08:15:46.415Z,1007.45
2017-12-02T08:16:52.466Z,1007.48
2017-12-02T08:17:58.511Z,1007.45
2017-12-02T08:19:04.994Z,1007.40
2017-12-02T08:20:10.504Z,1007.46
2017-12-02T08:21:16.627Z,1007.46
2017-12-02T08:22:22.609Z,1007.56
2017-12-02T08:23:28.728Z,1007.48
2017-12-02T08:24:34.720Z,1007.57
2017-12-02T08:25:40.654Z,1007.60
2017-12-02T08:26:46.772Z,1007.63
2017-12-02T08:27:52.816Z,1007.56
2017-12-02T08:28:58.767Z,1007.65
2017-12-02T08:30:04.841Z,1007.58
2017-12-02T08:31:10.965Z,1007.65
2017-12-02T08:32:16.850Z,1007.54
2017-12-02T08:33:22.869Z,1007.52
2017-12-02T08:34:28.932Z,1007.57
2017-12-02T08:35:34.986Z,1007.66
2017-12-02T08:36:40.980Z,1007.61
2017-12-02T08:37:47.022Z,1007.55
2017-12-02T08:38:53.082Z,1007.57
2017-12-02T08:39:59.122Z,1007.57
2017-12-02T08:41:05.161Z,1007.61
2017-12-02T08:42:11.183Z,1007.60
2017-12-02T08:43:17.229Z,1007.55
2017-12-02T08:44:23.470Z,1007.59
2017-12-02T08:45:29.326Z,1007.74
2017-12-02T08:46:35.350Z,1007.67
2017-12-02T08:47:41.405Z,1007.81
2017-12-02T08:48:47.465Z,1007.89
2017-12-02T08:49:53.481Z,1007.91
2017-12-02T08:50:59.566Z,1007.90
2017-12-02T08:52:05.570Z,1007.93
2017-12-02T08:53:11.737Z,1007.87
2017-12-02T08:54:17.725Z,1007.89
2017-12-02T08:55:23.727Z,1007.82
2017-12-02T08:56:29.807Z,1007.74
2017-12-02T08:57:36.780Z,1007.84
2017-12-02T08:58:41.837Z,1007.94
2017-12-02T08:59:47.887Z,1007.78
2017-12-02T09:00:53.905Z,1007.76
2017-12-02T09:02:00.129Z,1007.93
2017-12-02T09:03:06.084Z,1007.83
2017-12-02T09:04:12.581Z,1007.79
2017-12-02T09:05:18.170Z,1007.86
2017-12-02T09:06:24.224Z,1008.04
2017-12-02T09:07:30.130Z,1008.03
2017-12-02T09:08:36.166Z,1008.00
2017-12-02T09:09:42.473Z,1007.98
2017-12-02T09:10:48.337Z,1007.96
2017-12-02T09:11:54.287Z,1007.98
2017-12-02T09:13:00.342Z,1007.99
2017-12-02T09:14:06.388Z,1007.99
2017-12-02T09:15:12.397Z,1008.11
2017-12-02T09:16:18.484Z,1008.06
2017-12-02T09:17:24.476Z,1008.07
2017-12-02T09:18:30.528Z,1008.11
2017-12-02T09:19:36.646Z,1008.21
2017-12-02T09:20:42.588Z,1008.15
2017-12-02T09:21:48.633Z,1008.07
2017-12-02T09:22:54.779Z,1008.04
2017-12-02T09:24:00.735Z,1008.03
2017-12-02T09:25:06.757Z,1008.01
2017-12-02T09:26:13.334Z,1008.02
2017-12-02T09:27:18.853Z,1007.94
2017-12-02T09:28:25.437Z,1007.99
2017-12-02T09:29:31.002Z,1008.05
2017-12-02T09:30:37.543Z,1008.13
2017-12-02T09:31:43.058Z,1008.18
2017-12-02T09:32:49.122Z,1008.19
2017-12-02T09:33:55.939Z,1008.26
2017-12-02T09:35:01.394Z,1008.31
2017-12-02T09:36:07.371Z,1008.34
2017-12-02T09:37:13.347Z,1008.30
2017-12-02T09:38:19.533Z,1008.22
2017-12-02T09:39:25.500Z,1006.05
2017-12-02T09:40:32.042Z,1008.31
2017-12-02T09:41:38.198Z,1008.44
2017-12-02T09:42:43.767Z,1008.45
2017-12-02T09:43:49.900Z,1008.41
2017-12-02T09:44:55.844Z,1008.17
2017-12-02T09:46:01.870Z,1008.11
2017-12-02T09:47:08.486Z,1008.12
2017-12-02T09:48:14.192Z,1008.22
2017-12-02T09:49:20.094Z,1008.34
2017-12-02T09:50:26.211Z,1008.39
2017-12-02T09:51:32.212Z,1008.23
2017-12-02T09:52:38.284Z,1008.13
2017-12-02T09:53:44.359Z,1008.24
2017-12-02T09:54:50.437Z,1008.40
2017-12-02T09:55:56.521Z,1008.41
2017-12-02T09:57:02.555Z,1008.44
2017-12-02T09:58:08.621Z,1008.43
2017-12-02T09:59:15.379Z,1008.41
2017-12-02T10:00:20.745Z,1008.40
2017-12-02T10:01:26.893Z,1008.42
2017-12-02T10:02:32.867Z,1008.31
2017-12-02T10:03:38.937Z,1008.22
2017-12-02T10:04:45.022Z,1008.36
2017-12-02T10:05:51.088Z,1008.43
2017-12-02T10:06:57.135Z,1008.34
2017-12-02T10:08:03.257Z,1008.24
2017-12-02T10:09:09.241Z,1008.29
2017-12-02T10:10:15.318Z,1008.16
2017-12-02T10:11:21.961Z,1007.89
2017-12-02T10:12:27.417Z,1007.95
2017-12-02T10:13:33.484Z,1007.99
2017-12-02T12:31:52.411Z,572.34
2017-12-02T12:32:57.890Z,572.35
2017-12-02T12:36:27.587Z,572.34
2017-12-02T12:38:27.957Z,1004.53
2017-12-02T12:39:32.758Z,1007.60
2017-12-02T12:40:39.580Z,1007.83
2017-12-02T12:41:45.364Z,1007.85
2017-12-02T12:42:51.620Z,1007.85
2017-12-02T12:43:58.369Z,1007.90
2017-12-02T12:45:08.813Z,1008.07
2017-12-02T13:15:39.302Z,572.34
2017-12-02T13:27:43.903Z,572.34
2017-12-02T13:28:49.227Z,572.35
2017-12-02T13:37:26.921Z,572.34
2017-12-02T13:44:03.484Z,572.34
2017-12-02T13:46:49.880Z,572.34
2017-12-02T13:47:55.321Z,572.35
2017-12-02T13:49:01.913Z,572.35
2017-12-02T13:50:07.573Z,572.35
2017-12-02T13:52:45.415Z,1005.73
2017-12-02T13:53:53.056Z,1007.44
2017-12-02T13:54:59.867Z,1007.56
2017-12-02T13:56:06.205Z,1007.54
2017-12-02T13:57:11.938Z,1007.63
2017-12-02T13:58:18.689Z,1007.64
2017-12-02T13:59:24.917Z,1007.59
2017-12-02T14:00:31.209Z,1007.52
2017-12-02T14:01:36.875Z,1007.42
2017-12-02T14:02:43.102Z,1007.54
2017-12-02T14:03:49.803Z,1007.57
2017-12-02T14:04:56.121Z,1007.66
2017-12-02T14:06:02.241Z,1007.75
2017-12-02T14:07:07.946Z,1007.84
2017-12-02T14:08:14.190Z,1007.93
2017-12-02T14:09:20.349Z,1007.90
2017-12-02T14:10:26.535Z,1007.89
2017-12-02T14:11:32.734Z,1007.81
2017-12-02T14:12:38.899Z,1007.78
2017-12-02T14:13:45.058Z,1007.74
2017-12-02T14:14:51.227Z,1007.74
2017-12-02T14:15:57.398Z,1007.77
2017-12-02T14:17:03.536Z,1007.80
2017-12-02T14:18:09.672Z,1007.71
2017-12-02T14:19:15.824Z,1007.79
2017-12-02T14:20:21.962Z,1007.71
2017-12-02T14:21:28.623Z,1007.64
2017-12-02T14:22:35.250Z,1007.82
2017-12-02T14:23:40.860Z,1007.83
2017-12-02T14:24:46.974Z,1007.89
2017-12-02T14:25:52.648Z,1007.88
2017-12-02T14:26:59.257Z,1007.73
2017-12-02T14:28:04.841Z,1007.78
2017-12-02T14:29:10.939Z,1007.80
2017-12-02T14:30:17.532Z,1007.68
2017-12-02T14:31:23.676Z,1007.55
2017-12-02T14:32:29.287Z,1007.61
2017-12-02T14:33:35.863Z,1007.74
2017-12-02T14:34:41.459Z,1007.75
2017-12-02T14:35:48.113Z,1007.80
2017-12-02T14:36:53.690Z,1007.85
2017-12-02T14:38:00.249Z,1007.82
2017-12-02T14:39:05.852Z,1007.80
2017-12-02T14:40:11.941Z,1007.99
2017-12-02T14:41:18.134Z,1007.96
2017-12-02T14:42:24.125Z,1007.92
2017-12-02T14:43:30.720Z,1007.92
2017-12-02T14:44:36.813Z,1007.84
2017-12-02T14:45:42.894Z,1007.85
2017-12-02T14:46:48.506Z,1007.80
2017-12-02T14:47:55.052Z,1007.82
2017-12-02T14:49:00.659Z,1007.83
2017-12-02T14:50:07.214Z,1007.87
2017-12-02T14:51:12.831Z,1007.85
2017-12-02T14:52:19.399Z,1007.91
2017-12-02T14:53:25.453Z,1007.89
2017-12-02T14:54:31.538Z,1007.89
2017-12-02T14:55:37.133Z,1007.86
2017-12-02T14:56:43.722Z,1007.87
2017-12-02T14:57:49.265Z,1008.05
2017-12-02T14:58:55.851Z,1007.95
2017-12-02T15:00:01.429Z,1007.97
2017-12-02T15:01:07.980Z,1007.91
2017-12-02T15:02:14.128Z,1008.00
2017-12-02T15:03:20.119Z,1008.02
2017-12-02T15:04:26.178Z,1008.01
2017-12-02T15:05:32.251Z,1008.09
2017-12-02T15:06:37.807Z,1008.02
2017-12-02T15:07:44.394Z,1008.07
2017-12-02T15:08:50.434Z,1008.11
2017-12-02T15:09:56.485Z,1008.08
2017-12-02T15:11:02.041Z,1008.05
2017-12-02T15:12:08.613Z,1008.01
2017-12-02T15:13:14.143Z,1007.99
2017-12-02T15:14:20.205Z,1007.95
2017-12-02T15:15:26.748Z,1007.96
2017-12-02T15:16:32.804Z,1007.99
2017-12-02T15:17:38.879Z,1007.90
2017-12-02T15:18:44.405Z,1008.01
2017-12-02T15:19:50.449Z,1007.98
2017-12-02T15:20:57.009Z,1007.94
2017-12-02T15:22:02.547Z,1007.92
2017-12-02T15:23:08.614Z,1007.99
2017-12-02T15:24:15.182Z,1007.97
2017-12-02T15:25:21.168Z,1008.00
2017-12-02T15:26:26.718Z,1007.98
2017-12-02T15:27:32.778Z,1008.09
2017-12-02T15:28:39.311Z,1007.89
2017-12-02T15:29:45.326Z,1008.03
2017-12-02T15:30:50.882Z,1008.07
2017-12-02T15:31:57.424Z,1008.09
2017-12-02T15:33:03.972Z,1008.20
2017-12-02T15:34:09.489Z,1008.08
2017-12-02T15:35:15.067Z,1008.18
2017-12-02T15:36:21.072Z,1008.12
2017-12-02T15:37:27.121Z,1008.08
2017-12-02T15:38:33.307Z,1008.12
2017-12-02T15:39:39.197Z,1008.17
2017-12-02T15:40:45.738Z,1008.18
2017-12-02T15:41:51.288Z,1008.14
2017-12-02T15:42:57.840Z,1008.16
2017-12-02T15:44:03.865Z,1008.14
2017-12-02T15:45:09.964Z,1008.20
2017-12-02T15:46:15.917Z,1008.08
2017-12-02T15:47:21.468Z,1008.16
2017-12-02T15:48:28.015Z,1008.23
2017-12-02T15:49:34.141Z,1008.20
2017-12-02T15:50:40.112Z,1008.25
2017-12-02T15:51:46.125Z,1008.19
2017-12-02T15:52:51.666Z,1008.17
2017-12-02T15:53:58.231Z,1008.19
2017-12-02T15:55:03.762Z,1008.27
2017-12-02T15:56:09.803Z,1008.28
2017-12-02T15:57:16.320Z,1008.28
2017-12-02T15:58:21.871Z,1008.25
2017-12-02T15:59:27.901Z,1008.28
2017-12-02T16:00:33.944Z,1008.24
2017-12-02T16:01:40.468Z,1008.34
2017-12-02T16:02:46.512Z,1008.31
2017-12-02T16:03:52.092Z,1008.28
2017-12-02T16:04:58.613Z,1008.30
2017-12-02T16:06:04.149Z,1008.32
2017-12-02T16:07:10.200Z,1008.33
2017-12-02T16:08:16.234Z,1008.31
2017-12-02T16:09:22.291Z,1008.28
2017-12-02T16:10:28.800Z,1008.35
2017-12-02T16:11:34.839Z,1008.33
2017-12-02T16:12:40.392Z,1008.41
2017-12-02T16:13:46.933Z,1008.43
2017-12-02T16:14:52.995Z,1008.36
2017-12-02T16:15:59.000Z,1008.52
2017-12-02T16:17:05.051Z,1008.47
2017-12-02T16:18:11.399Z,1008.40
2017-12-02T16:19:16.661Z,1008.54
2017-12-02T16:20:22.670Z,1008.48
2017-12-02T16:21:29.209Z,1008.47
2017-12-02T16:22:35.538Z,1008.50
2017-12-02T16:23:41.514Z,1008.64
2017-12-02T16:24:47.766Z,1008.50
2017-12-02T16:26:58.897Z,1008.50
2017-12-02T16:28:04.964Z,1008.63
2017-12-02T16:29:11.005Z,1008.56
2017-12-02T16:30:17.887Z,1008.49
2017-12-02T16:31:24.553Z,1008.52
2017-12-02T16:32:29.117Z,1008.59
2017-12-02T16:33:35.156Z,1008.57
2017-12-02T16:34:41.213Z,1008.59
2017-12-02T16:35:47.705Z,1008.57
2017-12-02T16:36:53.453Z,1008.64
2017-12-02T16:37:59.799Z,1008.59